createdAt,value
2019-06-07T00:01:51.099Z,99.90
2019-06-07T00:04:33.873Z,99.90
2019-06-07T00:07:17.843Z,99.90
2019-06-07T00:09:56.659Z,99.90
2019-06-07T00:12:26.185Z,99.90
2019-06-07T00:15:20.135Z,99.90
2019-06-07T00:18:05.447Z,99.90
2019-06-07T00:20:46.459Z,99.90
2019-06-07T00:23:22.136Z,99.90
2019-06-07T00:25:47.236Z,99.90
2019-06-07T00:28:17.375Z,99.90
2019-06-07T00:31:06.901Z,99.90
2019-06-07T00:33:56.335Z,99.90
2019-06-07T00:36:45.056Z,99.90
2019-06-07T00:39:33.933Z,99.90
2019-06-07T00:42:24.244Z,99.90
2019-06-07T00:51:21.275Z,99.90
2019-06-07T00:53:50.563Z,99.90
2019-06-07T00:56:22.114Z,99.90
2019-06-07T00:59:14.551Z,99.90
2019-06-07T01:02:01.427Z,99.90
2019-06-07T01:04:30.839Z,99.90
2019-06-07T01:07:21.559Z,99.90
2019-06-07T01:10:03.378Z,99.90
2019-06-07T01:12:33.185Z,99.90
2019-06-07T01:15:02.768Z,99.90
2019-06-07T01:18:33.078Z,99.90
2019-06-07T01:20:41.854Z,99.90
2019-06-07T01:23:52.065Z,99.90
2019-06-07T01:25:42.874Z,99.90
2019-06-07T01:28:31.458Z,99.90
2019-06-07T01:31:01.375Z,99.90
2019-06-07T01:33:49.952Z,99.90
2019-06-07T01:36:22.394Z,99.90
2019-06-07T01:38:52.448Z,99.90
2019-06-07T01:41:43.156Z,99.90
2019-06-07T01:44:31.967Z,99.90
2019-06-07T01:50:01.416Z,99.90
2019-06-07T01:52:30.906Z,99.90
2019-06-07T01:55:00.429Z,99.90
2019-06-07T01:57:44.757Z,99.90
2019-06-07T02:00:22.085Z,99.90
2019-06-07T02:02:51.501Z,99.90
2019-06-07T02:05:21.607Z,99.90
2019-06-07T02:07:52.455Z,99.90
2019-06-07T02:10:24.699Z,99.90
2019-06-07T02:12:53.266Z,99.90
2019-06-07T02:15:25.039Z,99.90
2019-06-07T02:18:12.961Z,99.90
2019-06-07T02:20:42.605Z,99.90
2019-06-07T02:23:13.126Z,99.90
2019-06-07T02:25:50.037Z,99.90
2019-06-07T02:28:40.163Z,99.90
2019-06-07T02:31:04.318Z,99.90
2019-06-07T02:36:25.606Z,99.90
2019-06-07T02:38:53.353Z,99.90
2019-06-07T02:41:40.093Z,99.90
2019-06-07T02:46:52.678Z,99.90
2019-06-07T02:49:25.211Z,99.90
2019-06-07T02:51:53.407Z,99.90
2019-06-07T02:55:01.071Z,99.90
2019-06-07T02:57:39.935Z,99.90
2019-06-07T03:00:58.706Z,99.90
2019-06-07T03:03:14.097Z,99.90
2019-06-07T03:06:04.565Z,99.90
2019-06-07T03:08:46.301Z,99.90
2019-06-07T03:11:28.268Z,99.90
2019-06-07T03:14:18.901Z,99.90
2019-06-07T03:17:21.152Z,99.90
2019-06-07T03:22:52.892Z,99.90
2019-06-07T03:25:22.569Z,99.90
2019-06-07T03:27:52.356Z,99.90
2019-06-07T03:30:38.595Z,99.90
2019-06-07T03:32:53.958Z,99.90
2019-06-07T03:35:42.699Z,99.90
2019-06-07T03:38:24.938Z,99.90
2019-06-07T03:41:06.503Z,99.90
2019-06-07T03:43:48.516Z,99.90
2019-06-07T03:46:18.740Z,99.90
2019-06-07T03:48:48.425Z,99.90
2019-06-07T03:51:25.268Z,99.90
2019-06-07T03:53:49.958Z,99.90
2019-06-07T03:56:19.677Z,99.90
2019-06-07T03:58:50.560Z,99.90
2019-06-07T04:01:20.322Z,99.90
2019-06-07T04:03:51.721Z,99.90
2019-06-07T04:06:42.556Z,99.90
2019-06-07T04:09:22.951Z,99.90
2019-06-07T04:12:03.930Z,99.90
2019-06-07T04:14:48.192Z,99.90
2019-06-07T04:17:31.168Z,99.90
2019-06-07T04:20:13.633Z,99.90
2019-06-07T04:22:54.496Z,99.90
2019-06-07T04:25:39.449Z,99.90
2019-06-07T04:28:21.702Z,99.90
2019-06-07T04:31:03.083Z,99.90
2019-06-07T04:33:44.672Z,99.90
2019-06-07T04:36:41.853Z,99.90
2019-06-07T04:41:55.113Z,99.90
2019-06-07T04:44:39.383Z,99.90
2019-06-07T04:47:19.901Z,99.90
2019-06-07T04:50:01.723Z,99.90
2019-06-07T04:52:45.732Z,99.90
2019-06-07T04:55:27.324Z,99.90
2019-06-07T05:01:02.849Z,99.90
2019-06-07T05:03:41.731Z,99.90
2019-06-07T05:06:21.872Z,99.90
2019-06-07T05:09:03.191Z,99.90
2019-06-07T05:11:45.174Z,99.90
2019-06-07T05:14:26.453Z,99.90
2019-06-07T05:16:55.924Z,99.90
2019-06-07T05:19:45.387Z,99.90
2019-06-07T05:22:34.961Z,99.90
2019-06-07T05:25:16.515Z,99.90
2019-06-07T05:27:58.168Z,99.90
2019-06-07T05:33:25.309Z,99.90
2019-06-07T05:36:07.537Z,99.90
2019-06-07T05:38:41.071Z,99.90
2019-06-07T05:44:12.498Z,99.90
2019-06-07T05:46:54.368Z,99.90
2019-06-07T05:49:38.011Z,99.90
2019-06-07T05:52:17.650Z,99.90
2019-06-07T05:54:58.819Z,99.90
2019-06-07T05:57:45.783Z,99.90
2019-06-07T06:00:25.283Z,99.90
2019-06-07T06:03:07.202Z,99.90
2019-06-07T06:05:54.943Z,99.90
2019-06-07T06:08:36.132Z,99.90
2019-06-07T06:11:15.055Z,99.90
2019-06-07T06:14:06.544Z,99.90
2019-06-07T06:16:40.398Z,99.90
2019-06-07T06:19:10.409Z,99.90
2019-06-07T06:21:58.942Z,99.90
2019-06-07T06:25:28.789Z,99.90
2019-06-07T06:30:17.039Z,99.90
2019-06-07T06:36:15.212Z,99.90
2019-06-07T06:38:56.038Z,99.90
2019-06-07T06:41:52.230Z,99.90
2019-06-07T06:44:22.345Z,99.90
2019-06-07T06:47:05.977Z,99.90
2019-06-07T06:49:49.052Z,99.90
2019-06-07T06:52:29.073Z,99.90
2019-06-07T06:55:10.505Z,99.90
2019-06-07T06:57:53.024Z,99.90
2019-06-07T07:00:46.174Z,99.90
2019-06-07T07:06:24.676Z,99.90
2019-06-07T07:08:44.259Z,99.90
2019-06-07T07:11:26.221Z,99.90
2019-06-07T07:14:07.851Z,99.90
2019-06-07T07:16:52.281Z,99.90
2019-06-07T07:19:31.126Z,99.30
2019-06-07T07:22:12.687Z,98.50
2019-06-07T07:24:54.941Z,97.70
2019-06-07T07:27:36.414Z,97.20
2019-06-07T07:33:19.379Z,97.10
2019-06-07T07:36:19.341Z,97.10
2019-06-07T07:38:48.991Z,97.00
2019-06-07T07:41:26.287Z,96.60
2019-06-07T07:44:08.123Z,96.30
2019-06-07T07:46:52.763Z,96.10
2019-06-07T07:49:33.379Z,96.20
2019-06-07T07:52:14.960Z,96.00
2019-06-07T07:54:58.314Z,96.10
2019-06-07T07:57:39.513Z,96.50
2019-06-07T08:00:50.253Z,96.40
2019-06-07T08:03:04.536Z,95.70
2019-06-07T08:05:47.104Z,95.30
2019-06-07T08:08:29.133Z,95.70
2019-06-07T08:11:10.357Z,95.00
2019-06-07T08:13:52.910Z,94.70
2019-06-07T08:16:33.718Z,93.70
2019-06-07T08:19:14.608Z,93.60
2019-06-07T08:21:56.213Z,93.40
2019-06-07T08:24:37.687Z,93.20
2019-06-07T08:27:26.450Z,93.10
2019-06-07T08:30:25.887Z,93.40
2019-06-07T08:32:44.139Z,93.60
2019-06-07T08:38:25.166Z,93.60
2019-06-07T08:40:56.850Z,93.80
2019-06-07T08:43:33.009Z,93.10
2019-06-07T08:46:14.352Z,93.30
2019-06-07T08:48:58.981Z,93.70
2019-06-07T08:51:39.141Z,93.90
2019-06-07T08:54:23.490Z,94.10
2019-06-07T08:57:20.522Z,94.20
2019-06-07T08:59:53.616Z,94.60
2019-06-07T09:02:35.849Z,94.70
2019-06-07T09:05:16.721Z,94.70
2019-06-07T09:08:21.748Z,94.50
2019-06-07T09:10:39.965Z,94.50
2019-06-07T09:13:21.526Z,94.50
2019-06-07T09:16:08.018Z,94.20
2019-06-07T09:18:45.919Z,94.20
2019-06-07T09:21:27.471Z,94.30
2019-06-07T09:24:11.778Z,94.30
2019-06-07T09:26:51.329Z,93.70
2019-06-07T09:29:33.140Z,93.10
2019-06-07T09:32:18.277Z,92.30
2019-06-07T09:38:21.767Z,91.80
2019-06-07T09:40:40.973Z,91.70
2019-06-07T09:46:11.773Z,91.30
2019-06-07T09:49:10.725Z,91.60
2019-06-07T09:51:29.760Z,91.60
2019-06-07T09:54:11.627Z,91.20
2019-06-07T09:56:53.657Z,91.40
2019-06-07T10:08:14.426Z,91.40
2019-06-07T10:19:01.587Z,91.60
2019-06-07T10:21:42.731Z,91.00
2019-06-07T10:24:23.520Z,91.20
2019-06-07T10:27:06.005Z,91.30
2019-06-07T10:29:49.038Z,90.90
2019-06-07T10:32:30.889Z,90.40
2019-06-07T10:35:15.439Z,90.10
2019-06-07T10:37:58.093Z,90.30
2019-06-07T10:40:38.017Z,90.20
2019-06-07T10:43:07.502Z,90.40
2019-06-07T10:45:56.052Z,90.40
2019-06-07T10:48:44.695Z,90.50
2019-06-07T10:51:26.301Z,90.70
2019-06-07T10:54:20.996Z,91.50
2019-06-07T10:56:50.510Z,91.90
2019-06-07T10:59:30.442Z,91.30
2019-06-07T11:04:58.059Z,90.70
2019-06-07T11:07:39.613Z,90.50
2019-06-07T11:10:20.891Z,90.40
2019-06-07T11:13:01.844Z,90.30
2019-06-07T11:15:43.317Z,90.50
2019-06-07T11:18:24.297Z,90.30
2019-06-07T11:21:06.075Z,88.10
2019-06-07T11:23:47.571Z,89.10
2019-06-07T11:26:28.876Z,90.30
2019-06-07T11:29:10.923Z,91.10
2019-06-07T11:31:52.299Z,91.70
2019-06-07T11:34:34.000Z,92.40
2019-06-07T11:37:16.985Z,92.30
2019-06-07T11:39:58.306Z,92.80
2019-06-07T11:42:40.149Z,93.80
2019-06-07T11:45:21.431Z,93.20
2019-06-07T11:48:02.116Z,93.00
2019-06-07T11:53:22.251Z,95.30
2019-06-07T11:56:03.809Z,98.00
2019-06-07T11:58:45.691Z,98.30
2019-06-07T12:01:27.257Z,99.90
2019-06-07T12:04:09.517Z,99.90
2019-06-07T12:06:51.116Z,99.90
2019-06-07T12:09:31.923Z,99.90
2019-06-07T12:12:13.013Z,99.90
2019-06-07T12:14:53.965Z,99.90
2019-06-07T12:17:35.390Z,99.90
2019-06-07T12:20:18.588Z,99.90
2019-06-07T12:23:00.356Z,99.90
2019-06-07T12:25:42.125Z,99.90
2019-06-07T12:28:23.477Z,99.90
2019-06-07T12:31:05.117Z,99.90
2019-06-07T12:33:46.577Z,99.90
2019-06-07T12:36:27.284Z,99.90
2019-06-07T12:39:08.634Z,99.90
2019-06-07T12:41:50.264Z,99.90
2019-06-07T12:44:31.117Z,99.90
2019-06-07T12:47:12.766Z,99.90
2019-06-07T12:49:54.097Z,99.90
2019-06-07T12:52:35.626Z,99.90
2019-06-07T12:55:06.012Z,99.90
2019-06-07T12:57:54.606Z,99.90
2019-06-07T13:00:43.181Z,99.90
2019-06-07T13:03:24.569Z,99.90
2019-06-07T13:05:54.615Z,99.90
2019-06-07T13:08:43.142Z,99.90
2019-06-07T13:14:19.936Z,99.90
2019-06-07T13:17:01.195Z,99.90
2019-06-07T13:19:42.554Z,99.90
2019-06-07T13:22:24.434Z,99.90
2019-06-07T13:25:05.416Z,99.90
2019-06-07T13:27:46.596Z,99.90
2019-06-07T13:33:11.514Z,99.90
2019-06-07T13:35:40.923Z,99.90
2019-06-07T13:38:29.419Z,99.90
2019-06-07T13:41:32.758Z,99.90
2019-06-07T13:44:01.265Z,99.90
2019-06-07T13:46:42.380Z,99.90
2019-06-07T13:49:25.628Z,99.90
2019-06-07T13:52:06.860Z,99.90
2019-06-07T13:54:46.488Z,99.90
2019-06-07T13:57:28.513Z,99.90
2019-06-07T13:59:58.333Z,99.90
2019-06-07T14:02:47.886Z,99.90
2019-06-07T14:05:18.747Z,99.90
2019-06-07T14:08:08.712Z,99.90
2019-06-07T14:10:50.452Z,99.90
2019-06-07T14:13:31.998Z,99.90
2019-06-07T14:16:01.509Z,99.90
2019-06-07T14:18:50.164Z,99.90
2019-06-07T14:21:38.767Z,99.90
2019-06-07T14:24:20.983Z,99.80
2019-06-07T14:29:47.813Z,99.80
2019-06-07T14:32:17.713Z,99.90
2019-06-07T14:35:06.212Z,99.90
2019-06-07T14:37:54.760Z,99.90
2019-06-07T14:40:35.889Z,99.70
2019-06-07T14:43:17.001Z,99.90
2019-06-07T14:45:58.238Z,99.90
2019-06-07T14:48:27.992Z,99.90
2019-06-07T14:51:16.633Z,99.90
2019-06-07T14:54:05.242Z,99.90
2019-06-07T14:56:45.891Z,99.90
2019-06-07T14:59:28.317Z,99.90
2019-06-07T15:02:09.896Z,99.90
2019-06-07T15:08:27.025Z,99.90
2019-06-07T15:11:10.277Z,99.70
2019-06-07T15:13:51.419Z,99.70
2019-06-07T15:16:33.862Z,99.30
2019-06-07T15:21:54.134Z,97.10
2019-06-07T15:27:20.998Z,97.00
2019-06-07T15:30:09.528Z,97.40
2019-06-07T15:32:44.753Z,97.20
2019-06-07T15:35:26.374Z,97.60
2019-06-07T15:37:55.889Z,98.10
2019-06-07T15:40:44.505Z,97.90
2019-06-07T15:43:25.577Z,97.50
2019-06-07T15:46:06.643Z,96.70
2019-06-07T15:48:48.214Z,96.20
2019-06-07T15:51:30.645Z,95.40
2019-06-07T15:54:12.319Z,95.00
2019-06-07T15:59:39.299Z,93.90
2019-06-07T16:02:22.596Z,93.20
2019-06-07T16:04:52.099Z,91.80
2019-06-07T16:07:40.730Z,89.40
2019-06-07T16:10:29.415Z,88.50
2019-06-07T16:13:11.082Z,89.80
2019-06-07T16:15:52.213Z,91.50
2019-06-07T16:18:35.206Z,92.40
2019-06-07T16:21:16.774Z,93.20
2019-06-07T16:23:58.267Z,93.60
2019-06-07T16:26:40.199Z,94.10
2019-06-07T16:29:21.943Z,94.20
2019-06-07T16:32:02.691Z,93.40
2019-06-07T16:34:45.581Z,91.90
2019-06-07T16:37:26.850Z,90.90
2019-06-07T16:40:07.832Z,90.10
2019-06-07T16:42:49.480Z,89.50
2019-06-07T16:45:30.997Z,91.70
2019-06-07T16:48:12.097Z,93.10
2019-06-07T16:50:53.275Z,94.80
2019-06-07T16:54:02.372Z,95.80
2019-06-07T16:56:51.489Z,96.40
2019-06-07T16:59:32.576Z,97.20
2019-06-07T17:04:56.805Z,98.10
2019-06-07T17:07:40.279Z,98.50
2019-06-07T17:10:21.583Z,98.90
2019-06-07T17:13:02.506Z,98.90
2019-06-07T17:15:44.927Z,99.40
2019-06-07T17:18:26.723Z,99.90
2019-06-07T17:21:07.912Z,99.90
2019-06-07T17:23:49.488Z,99.90
2019-06-07T17:26:31.904Z,99.90
2019-06-07T17:29:13.725Z,99.90
2019-06-07T17:31:55.084Z,99.90
2019-06-07T17:34:36.418Z,99.90
2019-06-07T17:37:20.704Z,99.90
2019-06-07T17:40:02.538Z,99.90
2019-06-07T17:42:44.815Z,99.90
2019-06-07T17:48:10.826Z,99.90
2019-06-07T17:50:52.900Z,99.90
2019-06-07T17:53:34.309Z,99.90
2019-06-07T17:56:15.668Z,99.90
2019-06-07T17:58:57.313Z,99.90
2019-06-07T18:01:41.802Z,99.90
2019-06-07T18:04:21.761Z,99.90
2019-06-07T18:07:03.463Z,99.90
2019-06-07T18:12:48.124Z,99.90
2019-06-07T18:15:29.536Z,99.90
2019-06-07T18:18:11.912Z,99.90
2019-06-07T18:20:53.464Z,99.90
2019-06-07T18:23:35.173Z,99.90
2019-06-07T18:26:16.746Z,99.90
2019-06-07T18:28:59.320Z,99.90
2019-06-07T18:31:41.006Z,99.90
2019-06-07T18:34:10.533Z,99.90
2019-06-07T18:36:59.479Z,99.90
2019-06-07T18:39:48.943Z,99.90
2019-06-07T18:42:32.046Z,99.90
2019-06-07T18:45:13.245Z,99.90
2019-06-07T18:47:54.268Z,99.90
2019-06-07T18:50:35.649Z,99.90
2019-06-07T18:53:16.673Z,99.90
2019-06-07T18:55:58.264Z,99.90
2019-06-07T18:58:39.749Z,99.90
2019-06-07T19:01:21.919Z,99.90
2019-06-07T19:04:04.277Z,99.90
2019-06-07T19:06:45.502Z,99.90
2019-06-07T19:09:26.685Z,99.90
2019-06-07T19:12:08.899Z,99.90
2019-06-07T19:14:51.531Z,99.90
2019-06-07T19:17:32.944Z,99.90
2019-06-07T19:20:13.906Z,99.90
2019-06-07T19:22:56.350Z,99.90
2019-06-07T19:25:37.791Z,99.90
2019-06-07T19:28:07.348Z,99.90
2019-06-07T19:30:57.167Z,99.90
2019-06-07T19:36:53.507Z,99.90
2019-06-07T19:39:34.936Z,99.90
2019-06-07T19:45:30.661Z,99.90
2019-06-07T19:48:04.210Z,99.90
2019-06-07T19:50:45.054Z,99.90
2019-06-07T19:53:26.953Z,99.90
2019-06-07T19:56:08.523Z,99.90
2019-06-07T19:58:50.081Z,99.90
2019-06-07T20:01:31.955Z,99.90
2019-06-07T20:04:13.507Z,99.90
2019-06-07T20:06:56.204Z,99.90
2019-06-07T20:09:35.561Z,99.90
2019-06-07T20:12:17.006Z,99.90
2019-06-07T20:15:21.813Z,99.90
2019-06-07T20:17:41.360Z,99.90
2019-06-07T20:23:06.812Z,99.90
2019-06-07T20:25:48.757Z,99.90
2019-06-07T20:28:30.258Z,99.90
2019-06-07T20:31:01.817Z,99.90
2019-06-07T20:36:54.687Z,99.90
2019-06-07T20:39:34.787Z,99.90
2019-06-07T20:42:15.964Z,99.90
2019-06-07T20:44:57.550Z,99.90
2019-06-07T20:47:38.546Z,99.90
2019-06-07T20:50:19.770Z,99.90
2019-06-07T20:55:39.524Z,99.90
2019-06-07T21:01:05.482Z,99.90
2019-06-07T21:03:34.907Z,99.90
2019-06-07T21:06:23.663Z,99.90
2019-06-07T21:09:26.729Z,99.90
2019-06-07T21:11:55.648Z,99.90
2019-06-07T21:14:25.184Z,99.90
2019-06-07T21:17:14.053Z,99.90
2019-06-07T21:19:55.429Z,99.90
2019-06-07T21:22:36.505Z,99.90
2019-06-07T21:28:05.360Z,99.90
2019-06-07T21:30:47.014Z,99.90
2019-06-07T21:33:28.138Z,99.90
2019-06-07T21:36:10.051Z,99.90
2019-06-07T21:38:52.356Z,99.90
2019-06-07T21:41:34.850Z,99.90
2019-06-07T21:44:16.284Z,99.90
2019-06-07T21:49:46.418Z,99.90
2019-06-07T21:52:27.891Z,99.90
2019-06-07T21:55:09.481Z,99.90
2019-06-07T22:00:37.135Z,99.90
2019-06-07T22:03:18.523Z,99.90
2019-06-07T22:05:59.871Z,99.90
2019-06-07T22:08:41.866Z,99.90
2019-06-07T22:14:01.853Z,99.90
2019-06-07T22:19:30.524Z,99.90
2019-06-07T22:24:50.164Z,99.90
2019-06-07T22:30:18.831Z,99.90
2019-06-07T22:33:00.163Z,99.90
2019-06-07T22:35:41.381Z,99.90
2019-06-07T22:38:22.996Z,99.90
2019-06-07T22:41:04.551Z,99.90
2019-06-07T22:43:47.215Z,99.90
2019-06-07T22:49:09.156Z,99.90
2019-06-07T22:51:50.524Z,99.90
2019-06-07T22:54:32.977Z,99.90
2019-06-07T22:57:19.770Z,99.90
2019-06-07T23:02:50.149Z,99.90
2019-06-07T23:05:31.740Z,99.90
2019-06-07T23:08:13.095Z,99.90
2019-06-07T23:10:54.619Z,99.90
2019-06-07T23:13:24.282Z,99.90
2019-06-07T23:16:13.592Z,99.90
2019-06-07T23:18:43.223Z,99.90
2019-06-07T23:24:05.382Z,99.90
2019-06-07T23:26:53.933Z,99.90
2019-06-07T23:29:23.475Z,99.90
2019-06-07T23:32:12.674Z,99.90
2019-06-07T23:34:43.289Z,99.90
2019-06-07T23:40:30.637Z,99.90
2019-06-07T23:43:00.337Z,99.90
2019-06-07T23:45:49.025Z,99.90
2019-06-07T23:48:30.043Z,99.90
2019-06-07T23:51:11.950Z,99.90
2019-06-07T23:53:54.335Z,99.90
2019-06-07T23:56:36.473Z,99.90
2019-06-07T23:59:18.128Z,99.90
